Time;durP1;ratioP1;P1;durP2;ratioP2;P2;SDS_P1;SDS_P2;PMS_P1;PMS_P2;Temp;Humidity;BMP_temperature;BMP_pressure;BME280_temperature;BME280_humidity;BME280_pressure;Samples;Min_cycle;Max_cycle;Signal;HPM_P1;HPM_P2
2020/12/23 00:00:34;;;;;;;32.53;20.53;;;;;;;3.43;77.01;101466.94;5013295;28;20083;-72
2020/12/23 00:02:59;;;;;;;35.53;20.60;;;;;;;3.40;76.73;101465.94;5012640;28;20445;-71
2020/12/23 00:05:25;;;;;;;34.17;20.98;;;;;;;3.40;76.94;101467.56;5012765;28;20037;-71
2020/12/23 00:07:50;;;;;;;36.97;21.33;;;;;;;3.49;76.22;101470.00;4994395;28;20034;-71
2020/12/23 00:10:16;;;;;;;37.72;22.50;;;;;;;3.51;76.20;101471.91;4995049;28;20034;-70
2020/12/23 00:12:42;;;;;;;34.92;20.42;;;;;;;3.52;75.87;101468.59;5012460;28;20033;-72
2020/12/23 00:15:07;;;;;;;36.47;21.38;;;;;;;3.56;76.02;101478.28;5011998;28;20034;-69
2020/12/23 00:17:34;;;;;;;38.65;21.55;;;;;;;3.53;76.05;101452.50;5012481;28;20034;-68
2020/12/23 00:20:00;;;;;;;37.60;20.80;;;;;;;3.50;75.70;101433.47;5012206;28;20115;-68
2020/12/23 00:22:25;;;;;;;34.22;20.25;;;;;;;3.59;75.81;101456.31;4976288;28;20042;-70
2020/12/23 00:24:51;;;;;;;34.83;21.48;;;;;;;3.60;75.99;101448.81;5012170;28;20036;-71
2020/12/23 00:27:19;;;;;;;34.25;20.52;;;;;;;3.63;76.03;101454.13;5012194;28;20112;-68
2020/12/23 00:29:45;;;;;;;35.55;21.52;;;;;;;3.52;76.10;101442.16;5012306;28;20530;-71
2020/12/23 00:32:11;;;;;;;35.97;21.70;;;;;;;3.55;76.61;101445.88;5012074;28;20152;-69
2020/12/23 00:34:36;;;;;;;39.65;23.05;;;;;;;3.59;76.45;101454.66;5012280;28;20496;-73
2020/12/23 00:37:02;;;;;;;41.45;23.58;;;;;;;3.28;77.08;101441.97;5011986;28;20046;-72
2020/12/23 00:39:27;;;;;;;39.47;22.75;;;;;;;3.29;77.74;101463.25;5012026;28;20041;-68
2020/12/23 00:41:53;;;;;;;42.13;24.73;;;;;;;3.16;78.54;101456.25;5011879;28;20030;-72
2020/12/23 00:44:19;;;;;;;44.27;23.73;;;;;;;3.16;78.43;101461.38;4994412;28;20026;-69
2020/12/23 00:46:45;;;;;;;43.30;22.88;;;;;;;3.28;78.15;101454.72;5012035;28;20028;-70
2020/12/23 00:49:11;;;;;;;38.53;22.63;;;;;;;3.39;77.42;101451.38;5012214;28;20032;-69
2020/12/23 00:51:37;;;;;;;39.00;23.48;;;;;;;3.48;77.04;101450.34;5011638;28;20455;-69
2020/12/23 00:54:03;;;;;;;42.80;25.58;;;;;;;3.55;76.64;101452.63;5011740;28;20036;-69
2020/12/23 00:56:28;;;;;;;39.80;24.15;;;;;;;3.56;76.70;101460.44;5011756;28;20026;-69
2020/12/23 00:58:54;;;;;;;37.67;23.35;;;;;;;3.48;76.45;101422.28;5011886;28;20466;-72
2020/12/23 01:01:19;;;;;;;38.38;23.38;;;;;;;3.54;76.88;101436.41;5012061;28;20052;-71
2020/12/23 01:03:45;;;;;;;38.45;23.38;;;;;;;3.50;76.32;101418.16;5011800;28;20448;-69
2020/12/23 01:06:14;;;;;;;47.87;24.73;;;;;;;3.27;76.41;101393.34;5011343;28;20109;-69
2020/12/23 01:08:42;;;;;;;39.22;23.48;;;;;;;3.15;77.05;101403.44;5011298;28;20483;-71
2020/12/23 01:11:09;;;;;;;40.78;24.90;;;;;;;3.29;77.96;101441.19;5011686;28;20017;-71
2020/12/23 01:13:35;;;;;;;42.22;24.60;;;;;;;3.20;78.19;101440.44;5011903;28;20122;-68
2020/12/23 01:16:01;;;;;;;39.57;24.43;;;;;;;3.26;78.20;101428.16;5011867;28;20096;-71
2020/12/23 01:18:27;;;;;;;43.45;25.02;;;;;;;3.31;77.80;101431.09;5011724;28;20038;-70
2020/12/23 01:20:53;;;;;;;41.13;25.52;;;;;;;3.35;77.64;101418.72;4993646;28;20034;-70
2020/12/23 01:23:18;;;;;;;43.38;25.50;;;;;;;3.33;77.63;101415.16;5011717;28;20033;-68
2020/12/23 01:25:44;;;;;;;41.63;25.37;;;;;;;3.35;77.79;101415.25;5011532;28;20018;-70
2020/12/23 01:28:09;;;;;;;45.10;25.48;;;;;;;3.27;77.76;101378.91;5011904;28;20061;-71
2020/12/23 01:30:35;;;;;;;46.60;26.20;;;;;;;3.46;77.65;101404.25;5011568;28;20034;-69
2020/12/23 01:33:00;;;;;;;42.07;26.53;;;;;;;3.40;77.71;101393.56;5013661;28;20026;-71
2020/12/23 01:35:26;;;;;;;44.63;25.07;;;;;;;3.41;78.13;101400.44;5014804;28;20044;-71
2020/12/23 01:37:51;;;;;;;43.05;25.58;;;;;;;3.45;78.33;101399.94;5015338;28;20054;-73
2020/12/23 01:40:17;;;;;;;45.70;27.47;;;;;;;3.40;78.52;101419.06;5015503;28;20022;-70
2020/12/23 01:42:42;;;;;;;44.35;27.02;;;;;;;3.46;79.06;101414.47;5029790;28;20038;-72
2020/12/23 01:45:08;;;;;;;43.00;27.33;;;;;;;3.49;78.78;101416.38;5030452;28;20172;-69
2020/12/23 01:47:35;;;;;;;47.35;27.20;;;;;;;3.32;78.95;101403.16;5015015;28;20034;-69
2020/12/23 01:50:03;;;;;;;47.67;26.83;;;;;;;3.35;79.13;101389.75;5014791;28;20033;-72
2020/12/23 01:52:28;;;;;;;41.47;26.83;;;;;;;3.48;78.79;101399.31;5015264;28;20112;-72
2020/12/23 01:54:55;;;;;;;42.22;26.30;;;;;;;3.48;78.78;101389.97;5015057;28;20105;-70
2020/12/23 01:57:20;;;;;;;43.63;25.38;;;;;;;3.53;78.26;101400.56;5014939;28;20026;-69
2020/12/23 01:59:47;;;;;;;47.08;27.70;;;;;;;3.51;78.25;101384.22;5014900;28;20088;-73
2020/12/23 02:02:16;;;;;;;43.10;25.75;;;;;;;3.27;78.61;101352.53;4996515;28;20073;-71
2020/12/23 02:04:41;;;;;;;42.50;25.20;;;;;;;3.43;78.94;101388.72;5014534;28;20033;-71
2020/12/23 02:07:07;;;;;;;41.53;25.77;;;;;;;3.41;79.50;101380.03;5014751;28;20030;-72
2020/12/23 02:09:33;;;;;;;39.70;26.00;;;;;;;3.17;79.76;101340.69;5014760;28;20135;-67
2020/12/23 02:12:00;;;;;;;43.77;24.67;;;;;;;3.40;79.80;101370.56;5014540;28;20034;-66
2020/12/23 02:14:25;;;;;;;44.30;25.45;;;;;;;3.42;79.33;101363.94;5014957;28;20084;-72
2020/12/23 02:16:51;;;;;;;38.13;24.30;;;;;;;3.40;79.42;101362.91;5014380;28;20111;-72
2020/12/23 02:19:17;;;;;;;39.13;23.40;;;;;;;3.38;79.80;101367.03;5014369;28;20030;-69
2020/12/23 02:21:43;;;;;;;40.43;24.37;;;;;;;3.30;80.14;101358.75;5014384;28;20026;-71
2020/12/23 02:24:09;;;;;;;39.08;25.20;;;;;;;3.12;80.54;101326.66;5012934;28;20033;-69
2020/12/23 02:26:34;;;;;;;36.80;24.33;;;;;;;3.42;80.18;101378.38;5014700;28;20030;-66
2020/12/23 02:29:00;;;;;;;37.17;22.90;;;;;;;3.52;79.94;101373.22;5014312;28;20085;-69
2020/12/23 02:31:25;;;;;;;41.47;22.77;;;;;;;3.58;79.91;101370.25;5014178;28;20038;-67
2020/12/23 02:33:51;;;;;;;37.75;23.83;;;;;;;3.61;79.47;101373.94;5014165;28;20041;-68
2020/12/23 02:36:16;;;;;;;36.03;23.10;;;;;;;3.63;79.30;101374.97;5013137;28;20026;-72
2020/12/23 02:38:42;;;;;;;39.78;23.25;;;;;;;3.64;79.33;101371.66;5013484;28;20030;-72
2020/12/23 02:41:08;;;;;;;39.90;23.20;;;;;;;3.62;79.50;101370.63;5013270;28;20024;-70
2020/12/23 02:43:33;;;;;;;38.05;23.27;;;;;;;3.58;79.85;101348.19;5013343;28;20026;-69
2020/12/23 02:45:58;;;;;;;33.90;22.17;;;;;;;3.58;79.91;101345.63;5013593;28;20026;-68
2020/12/23 02:48:24;;;;;;;39.10;23.65;;;;;;;3.56;79.67;101342.06;5011415;28;20421;-72
2020/12/23 02:50:49;;;;;;;37.17;23.13;;;;;;;3.33;79.88;101313.06;5013161;28;20125;-71
2020/12/23 02:53:15;;;;;;;35.80;23.00;;;;;;;3.41;80.84;101349.41;5013612;28;20030;-71
2020/12/23 02:55:41;;;;;;;36.00;22.23;;;;;;;3.40;80.60;101330.66;5012933;28;20440;-70
2020/12/23 02:58:06;;;;;;;32.87;22.40;;;;;;;3.45;80.48;101342.88;5012974;28;20148;-73
2020/12/23 03:00:32;;;;;;;34.10;22.27;;;;;;;3.43;80.90;101324.91;5013168;28;20026;-69
2020/12/23 03:02:57;;;;;;;37.63;23.35;;;;;;;3.56;80.73;101334.41;5013578;28;20474;-69
2020/12/23 03:05:23;;;;;;;34.20;22.65;;;;;;;3.43;80.45;101301.00;5013159;28;20029;-70
2020/12/23 03:07:48;;;;;;;32.75;21.50;;;;;;;3.55;80.69;101327.50;5013037;28;20037;-72
2020/12/23 03:10:14;;;;;;;35.53;22.13;;;;;;;3.54;80.90;101329.19;5012637;28;20117;-70
2020/12/23 03:12:40;;;;;;;40.83;23.27;;;;;;;3.56;80.88;101326.75;5012864;28;20057;-72
2020/12/23 03:15:05;;;;;;;33.87;22.10;;;;;;;3.59;80.99;101329.56;5012630;28;20029;-70
2020/12/23 03:17:30;;;;;;;32.65;21.83;;;;;;;3.64;80.86;101333.34;5012433;28;20037;-72
2020/12/23 03:19:56;;;;;;;33.40;22.15;;;;;;;3.72;80.76;101336.50;5005915;28;20034;-69
2020/12/23 03:22:21;;;;;;;34.03;21.88;;;;;;;3.80;80.36;101344.75;5009115;28;20038;-72
2020/12/23 03:24:47;;;;;;;36.80;22.98;;;;;;;3.69;80.68;101341.38;5012533;28;20048;-70
2020/12/23 03:27:12;;;;;;;39.47;23.05;;;;;;;3.64;81.30;101350.31;5010743;28;20071;-69
2020/12/23 03:29:38;;;;;;;36.22;22.50;;;;;;;3.53;81.50;101367.38;5009633;28;20091;-70
2020/12/23 03:32:24;;;;;;;32.90;21.13;;;;;;;3.40;81.79;101353.63;5010636;28;20051;-70
2020/12/23 03:34:49;;;;;;;34.90;23.00;;;;;;;3.55;82.00;101366.72;4987734;28;20101;-69
2020/12/23 03:37:15;;;;;;;37.35;23.65;;;;;;;3.58;81.92;101344.72;4988432;28;20473;-69
2020/12/23 03:39:40;;;;;;;35.65;22.27;;;;;;;3.62;81.44;101342.53;4990241;28;20066;-67
2020/12/23 03:42:06;;;;;;;34.83;22.58;;;;;;;3.72;81.22;101349.28;4988603;28;20036;-68
2020/12/23 03:44:31;;;;;;;38.90;22.50;;;;;;;3.80;80.59;101354.97;4989875;28;20033;-69
2020/12/23 03:46:57;;;;;;;37.05;23.17;;;;;;;3.77;80.42;101355.63;4988785;28;20050;-73
2020/12/23 03:49:22;;;;;;;36.80;23.30;;;;;;;3.81;80.19;101354.22;4989474;28;20049;-69
2020/12/23 03:51:48;;;;;;;38.95;22.95;;;;;;;3.80;80.53;101357.53;4988401;28;20034;-71
2020/12/23 03:54:13;;;;;;;33.88;22.10;;;;;;;3.59;80.34;101318.44;4990248;28;20037;-68
2020/12/23 03:56:39;;;;;;;34.10;22.80;;;;;;;3.62;80.50;101314.47;4988547;28;20026;-68
2020/12/23 03:59:04;;;;;;;36.90;21.85;;;;;;;3.71;80.45;101321.94;4987245;28;20125;-70
2020/12/23 04:01:30;;;;;;;34.92;21.98;;;;;;;3.81;80.43;101344.00;4973365;28;20062;-70
2020/12/23 04:03:55;;;;;;;35.10;22.52;;;;;;;3.63;81.21;101323.03;4974191;28;20383;-69
2020/12/23 04:06:21;;;;;;;34.60;22.90;;;;;;;3.61;81.23;101335.66;4972258;28;20439;-70
2020/12/23 04:08:46;;;;;;;40.03;24.50;;;;;;;3.47;81.54;101308.16;4989188;28;20088;-69
2020/12/23 04:11:12;;;;;;;35.50;22.50;;;;;;;3.56;82.03;101319.09;4986578;28;20045;-66
2020/12/23 04:13:37;;;;;;;36.93;22.23;;;;;;;3.62;82.12;101331.47;4992521;28;20081;-67
2020/12/23 04:16:03;;;;;;;35.03;22.95;;;;;;;3.62;82.09;101334.88;4992822;28;20034;-67
2020/12/23 04:18:28;;;;;;;33.97;22.13;;;;;;;3.58;82.61;101331.97;4992634;28;20062;-66
2020/12/23 04:20:54;;;;;;;36.35;22.52;;;;;;;3.57;82.37;101333.63;4992597;28;20034;-66
2020/12/23 04:23:19;;;;;;;38.30;21.97;;;;;;;3.58;82.45;101332.88;4992383;28;20056;-68
2020/12/23 04:25:45;;;;;;;38.95;23.55;;;;;;;3.60;82.18;101350.84;4992414;28;20034;-68
2020/12/23 04:28:10;;;;;;;36.78;22.95;;;;;;;3.64;82.18;101357.97;4992725;28;20022;-66
2020/12/23 04:30:36;;;;;;;36.77;22.73;;;;;;;3.57;82.75;101361.72;4993010;28;20037;-70
2020/12/23 04:33:01;;;;;;;35.70;21.67;;;;;;;3.64;82.43;101361.44;4992908;28;20026;-67
2020/12/23 04:35:27;;;;;;;37.60;22.52;;;;;;;3.57;82.33;101331.09;4993066;28;20034;-68
2020/12/23 04:37:53;;;;;;;35.40;22.42;;;;;;;3.79;81.55;101361.75;4991099;28;20058;-68
2020/12/23 04:40:19;;;;;;;37.35;23.40;;;;;;;3.68;81.58;101352.38;4993009;28;20100;-68
2020/12/23 04:42:44;;;;;;;37.05;22.63;;;;;;;3.71;82.16;101350.94;4992824;28;20041;-68
2020/12/23 04:45:10;;;;;;;35.78;22.27;;;;;;;3.62;81.96;101317.00;4992654;28;20030;-67
2020/12/23 04:47:37;;;;;;;38.83;23.80;;;;;;;3.72;81.92;101345.03;4992591;28;20026;-67
2020/12/23 04:50:03;;;;;;;37.35;22.13;;;;;;;3.69;82.19;101346.50;4992735;28;20081;-66
2020/12/23 04:52:34;;;;;;;38.17;22.97;;;;;;;3.62;82.63;101342.53;4992718;28;20056;-68
2020/12/23 04:55:05;;;;;;;36.73;22.37;;;;;;;3.46;83.74;101345.53;4992770;28;20462;-67
2020/12/23 04:57:31;;;;;;;38.30;23.17;;;;;;;3.37;84.20;101340.59;4992690;28;20035;-67
2020/12/23 04:59:56;;;;;;;36.80;23.67;;;;;;;3.30;84.94;101348.56;4992677;28;20037;-69
2020/12/23 05:02:22;;;;;;;39.63;23.87;;;;;;;3.34;85.03;101342.91;4992545;28;20031;-69
2020/12/23 05:04:48;;;;;;;37.77;23.30;;;;;;;3.33;85.22;101343.69;4989329;28;20038;-69
2020/12/23 05:07:18;;;;;;;36.17;21.87;;;;;;;3.28;85.12;101341.50;4990954;28;20096;-67
2020/12/23 05:09:47;;;;;;;43.47;24.17;;;;;;;3.29;85.46;101338.19;4992229;28;20408;-70
2020/12/23 05:12:13;;;;;;;40.47;23.88;;;;;;;3.32;85.13;101339.34;4992023;28;20030;-66
2020/12/23 05:14:38;;;;;;;42.87;23.67;;;;;;;3.33;85.18;101348.78;4992371;28;20037;-66
2020/12/23 05:17:04;;;;;;;47.22;26.60;;;;;;;3.46;84.58;101350.66;4992598;28;20035;-68
2020/12/23 05:19:30;;;;;;;44.28;27.10;;;;;;;3.49;84.16;101358.56;4992487;28;20069;-66
2020/12/23 05:21:58;;;;;;;53.72;32.95;;;;;;;3.53;84.38;101358.03;4992045;28;20034;-68
2020/12/23 05:24:25;;;;;;;44.35;27.20;;;;;;;3.54;84.33;101358.94;4992212;28;20470;-69
2020/12/23 05:26:56;;;;;;;42.88;24.13;;;;;;;3.43;83.95;101344.41;4992280;28;20093;-67
2020/12/23 05:29:23;;;;;;;43.17;25.88;;;;;;;3.60;83.95;101372.19;4992071;28;20034;-69
2020/12/23 05:31:48;;;;;;;44.50;23.60;;;;;;;3.40;83.93;101333.19;4992061;28;20033;-69
2020/12/23 05:34:14;;;;;;;42.63;24.30;;;;;;;3.66;83.95;101372.66;4991906;28;20026;-69
2020/12/23 05:36:41;;;;;;;40.40;23.85;;;;;;;3.73;83.51;101379.16;4997354;28;20125;-70
2020/12/23 05:39:08;;;;;;;39.07;23.50;;;;;;;3.73;82.88;101362.16;5011229;28;20046;-67
2020/12/23 05:41:34;;;;;;;38.65;23.50;;;;;;;3.60;82.61;101331.34;5011405;28;20498;-69
2020/12/23 05:44:00;;;;;;;36.50;22.98;;;;;;;3.83;82.40;101374.00;5011759;28;20111;-68
2020/12/23 05:46:26;;;;;;;38.08;24.08;;;;;;;3.75;82.71;101372.53;5011913;28;20467;-68
2020/12/23 05:48:52;;;;;;;42.50;23.13;;;;;;;3.72;82.58;101372.25;5011595;28;20167;-67
2020/12/23 05:51:18;;;;;;;45.80;23.25;;;;;;;3.65;82.83;101376.00;5011852;28;20034;-66
2020/12/23 05:53:44;;;;;;;40.38;22.88;;;;;;;3.59;83.09;101372.97;5011743;28;20030;-69
2020/12/23 05:56:09;;;;;;;39.63;24.13;;;;;;;3.60;83.12;101381.50;5011634;28;20030;-69
2020/12/23 05:58:37;;;;;;;35.28;23.83;;;;;;;3.52;83.17;101376.66;4994193;28;20022;-66
2020/12/23 06:01:08;;;;;;;39.03;22.90;;;;;;;3.51;83.47;101376.56;5011685;28;20030;-66
2020/12/23 06:03:56;;;;;;;39.10;23.67;;;;;;;3.37;83.68;101355.03;5011694;28;20034;-68
2020/12/23 06:06:26;;;;;;;40.40;23.15;;;;;;;3.46;83.87;101382.97;5011455;28;20040;-69
2020/12/23 06:08:54;;;;;;;40.33;23.25;;;;;;;3.50;83.75;101379.88;5011515;28;20091;-68
2020/12/23 06:11:36;;;;;;;42.03;26.13;;;;;;;3.35;83.73;101351.44;5011635;28;20035;-67
2020/12/23 06:14:11;;;;;;;45.90;25.73;;;;;;;3.51;83.64;101377.44;5011218;28;20037;-68
2020/12/23 06:16:45;;;;;;;39.28;23.92;;;;;;;3.45;84.43;101374.41;5011565;28;20030;-66
2020/12/23 06:19:11;;;;;;;40.22;24.15;;;;;;;3.42;84.61;101373.28;4986680;28;20030;-68
2020/12/23 06:21:38;;;;;;;40.73;24.23;;;;;;;3.21;84.83;101335.91;5009566;28;20045;-69
2020/12/23 06:24:05;;;;;;;40.83;24.23;;;;;;;3.43;84.80;101368.28;4994848;28;20417;-65
2020/12/23 06:26:33;;;;;;;37.53;23.70;;;;;;;3.23;84.99;101330.97;5010355;28;20026;-69
2020/12/23 06:29:01;;;;;;;47.10;24.53;;;;;;;3.24;84.78;101333.63;5011302;28;20080;-67
2020/12/23 06:31:31;;;;;;;38.05;24.10;;;;;;;3.47;84.82;101365.19;5013886;28;20112;-70
2020/12/23 06:33:58;;;;;;;40.42;25.20;;;;;;;3.50;84.63;101380.78;5012707;28;20393;-66
2020/12/23 06:36:34;;;;;;;39.67;25.73;;;;;;;3.53;84.89;101369.91;5012405;28;20153;-68
2020/12/23 06:39:18;;;;;;;41.63;25.20;;;;;;;3.51;85.20;101382.53;5011479;28;20113;-67
2020/12/23 06:41:53;;;;;;;41.63;24.73;;;;;;;3.51;84.86;101374.00;5011359;28;20038;-68
2020/12/23 06:44:19;;;;;;;38.50;24.42;;;;;;;3.55;85.30;101376.94;5013545;28;20064;-66
2020/12/23 06:47:02;;;;;;;39.40;25.63;;;;;;;3.65;84.83;101386.22;5014253;28;20084;-68
2020/12/23 06:49:43;;;;;;;37.97;24.33;;;;;;;3.73;84.50;101374.94;5014100;28;20460;-68
2020/12/23 06:52:24;;;;;;;38.17;24.03;;;;;;;3.70;84.50;101390.03;5013717;28;20087;-68
2020/12/23 06:54:54;;;;;;;41.10;26.00;;;;;;;3.55;85.47;101366.72;5012859;28;20128;-65
2020/12/23 06:57:36;;;;;;;39.80;24.58;;;;;;;3.53;85.33;101352.03;5014018;28;20065;-65
2020/12/23 07:00:17;;;;;;;42.20;25.42;;;;;;;3.85;85.51;101381.78;5013784;28;20485;-70
2020/12/23 07:02:48;;;;;;;38.53;23.67;;;;;;;3.94;84.73;101377.41;5013680;28;20026;-67
2020/12/23 07:05:31;;;;;;;37.35;23.27;;;;;;;4.04;85.02;101381.56;5013928;28;20033;-69
2020/12/23 07:08:05;;;;;;;36.33;23.40;;;;;;;4.13;84.27;101372.03;5014059;28;20030;-68
2020/12/23 07:10:33;;;;;;;37.58;23.33;;;;;;;4.23;84.20;101383.88;5013828;28;20072;-68
2020/12/23 07:13:11;;;;;;;38.08;23.45;;;;;;;4.25;83.72;101367.00;5013455;28;20401;-68
2020/12/23 07:15:42;;;;;;;34.40;22.33;;;;;;;4.45;83.31;101385.50;5013162;28;20125;-66
2020/12/23 07:18:11;;;;;;;37.17;22.48;;;;;;;4.50;83.04;101391.91;5013747;28;20104;-66
2020/12/23 07:20:49;;;;;;;32.95;20.33;;;;;;;4.59;82.62;101390.03;5013836;28;20026;-67
2020/12/23 07:23:19;;;;;;;32.70;21.05;;;;;;;4.59;82.41;101381.47;5013680;28;20084;-68
2020/12/23 07:25:50;;;;;;;35.83;22.27;;;;;;;4.58;82.47;101370.34;5013649;28;20080;-69
2020/12/23 07:28:18;;;;;;;35.53;22.58;;;;;;;4.71;82.50;101379.84;5013098;28;20076;-69
2020/12/23 07:30:45;;;;;;;31.98;20.15;;;;;;;4.74;83.19;101386.84;5013263;28;20038;-68
2020/12/23 07:33:20;;;;;;;58.90;38.65;;;;;;;4.65;81.68;101382.81;5013633;28;20033;-66
2020/12/23 07:35:48;;;;;;;37.85;26.23;;;;;;;4.44;81.63;101356.50;5013137;28;20042;-69
2020/12/23 07:38:16;;;;;;;42.70;25.05;;;;;;;4.67;81.43;101391.50;4995418;28;20046;-68
2020/12/23 07:40:42;;;;;;;43.53;28.58;;;;;;;4.79;81.57;101395.75;5012955;28;20045;-69
2020/12/23 07:43:08;;;;;;;33.67;22.75;;;;;;;5.01;80.69;101411.06;5013231;28;20132;-69
2020/12/23 07:45:35;;;;;;;34.03;21.23;;;;;;;5.09;79.75;101404.81;5013213;28;20034;-68
2020/12/23 07:48:08;;;;;;;37.33;21.17;;;;;;;5.10;79.87;101403.16;5013224;28;20029;-66
2020/12/23 07:50:39;;;;;;;37.22;21.98;;;;;;;5.11;79.96;101393.03;5013250;28;20057;-67
2020/12/23 07:53:31;;;;;;;34.92;21.50;;;;;;;5.16;79.13;101398.50;5012675;28;20473;-68
2020/12/23 07:56:01;;;;;;;32.30;21.63;;;;;;;4.99;79.30;101369.09;4914214;29;20067;-68
2020/12/23 07:58:27;;;;;;;35.30;22.00;;;;;;;5.23;79.28;101404.97;4913958;29;20123;-68
2020/12/23 08:00:52;;;;;;;36.40;21.48;;;;;;;5.30;78.59;101413.19;4913858;29;20430;-71
2020/12/23 08:03:30;;;;;;;37.20;22.48;;;;;;;5.35;78.92;101416.09;4914079;29;20128;-68
2020/12/23 08:06:10;;;;;;;37.17;22.05;;;;;;;5.28;79.78;101394.28;4913789;29;20036;-69
2020/12/23 08:08:37;;;;;;;35.15;20.63;;;;;;;5.28;78.99;101376.38;4932533;29;20087;-72
2020/12/23 08:11:09;;;;;;;33.03;21.52;;;;;;;5.43;78.22;101397.06;4932612;29;20046;-70
2020/12/23 08:13:35;;;;;;;36.30;22.17;;;;;;;5.51;78.57;101402.75;4932644;29;20084;-67
2020/12/23 08:16:11;;;;;;;33.10;21.50;;;;;;;5.34;78.07;101368.22;4932628;29;20042;-68
2020/12/23 08:18:39;;;;;;;33.90;22.17;;;;;;;5.45;77.92;101374.13;4932953;29;20507;-66
2020/12/23 08:21:11;;;;;;;36.67;22.27;;;;;;;5.72;77.35;101408.53;4932673;29;20036;-72
2020/12/23 08:23:37;;;;;;;37.03;21.80;;;;;;;5.74;77.63;101399.25;4932378;29;20424;-66
2020/12/23 08:26:04;;;;;;;34.33;21.92;;;;;;;5.76;77.92;101396.81;4916768;29;20138;-68
2020/12/23 08:28:33;;;;;;;38.63;23.85;;;;;;;5.87;77.47;101395.91;4932543;29;20044;-68
2020/12/23 08:31:00;;;;;;;38.58;23.88;;;;;;;5.93;77.00;101395.44;4932546;29;20111;-68
2020/12/23 08:33:27;;;;;;;39.63;22.73;;;;;;;5.95;76.44;101393.88;4993967;28;20060;-67
2020/12/23 08:36:00;;;;;;;34.25;22.42;;;;;;;6.01;76.28;101380.63;5009816;28;20033;-67
2020/12/23 08:38:25;;;;;;;37.63;22.50;;;;;;;6.05;76.54;101368.13;5009609;28;20058;-68
2020/12/23 08:40:53;;;;;;;34.95;22.33;;;;;;;5.90;76.55;101339.72;5012164;28;20036;-68
2020/12/23 08:43:24;;;;;;;36.80;23.15;;;;;;;6.20;75.81;101367.44;5011594;28;20029;-69
2020/12/23 08:45:50;;;;;;;78.85;45.60;;;;;;;6.39;75.46;101365.34;5011869;28;20030;-68
2020/12/23 08:48:24;;;;;;;48.53;29.85;;;;;;;6.24;75.48;101339.56;5011761;28;20478;-69
2020/12/23 08:51:01;;;;;;;38.70;23.38;;;;;;;6.31;75.17;101362.25;5011996;28;20100;-68
2020/12/23 08:53:32;;;;;;;40.25;24.42;;;;;;;6.22;75.98;101341.13;5012036;28;20034;-69
2020/12/23 08:55:59;;;;;;;42.08;22.98;;;;;;;6.24;75.60;101325.81;5011685;28;20030;-69
2020/12/23 08:58:25;;;;;;;39.03;21.95;;;;;;;6.46;75.75;101362.41;5012156;28;20030;-70
2020/12/23 09:01:00;;;;;;;35.78;22.50;;;;;;;6.58;75.20;101364.91;5012261;28;20113;-65
2020/12/23 09:03:27;;;;;;;31.60;20.70;;;;;;;6.42;74.01;101319.38;5012114;28;20026;-66
2020/12/23 09:05:56;;;;;;;34.60;22.95;;;;;;;6.50;75.31;101322.44;5011734;28;20026;-69
2020/12/23 09:08:24;;;;;;;34.15;21.48;;;;;;;6.41;74.52;101304.78;5011691;28;20480;-68
2020/12/23 09:10:58;;;;;;;34.78;21.70;;;;;;;6.71;74.09;101347.78;4994352;28;20459;-67
2020/12/23 09:13:31;;;;;;;33.53;21.55;;;;;;;6.71;73.86;101340.09;5011953;28;20092;-66
2020/12/23 09:15:59;;;;;;;37.92;21.27;;;;;;;6.77;73.22;101314.81;5011809;28;20034;-66
2020/12/23 09:18:26;;;;;;;29.83;19.63;;;;;;;6.91;72.90;101318.28;5011530;28;20080;-66
2020/12/23 09:20:59;;;;;;;31.33;19.80;;;;;;;6.91;73.30;101310.59;4993334;28;20073;-68
2020/12/23 09:23:24;;;;;;;30.85;18.38;;;;;;;6.95;72.88;101321.16;5011746;28;20084;-67
2020/12/23 09:25:50;;;;;;;36.17;19.90;;;;;;;7.01;73.52;101323.22;5011554;28;20034;-68
2020/12/23 09:28:15;;;;;;;34.38;20.45;;;;;;;7.08;71.67;101329.66;5011331;28;20405;-68
2020/12/23 09:30:44;;;;;;;38.40;23.77;;;;;;;7.12;72.36;101317.09;5011805;28;20026;-68
2020/12/23 09:33:12;;;;;;;32.08;20.50;;;;;;;7.10;72.14;101315.22;5011361;28;20042;-69
2020/12/23 09:35:39;;;;;;;26.30;16.10;;;;;;;7.10;69.32;101274.16;5011682;28;20038;-69
2020/12/23 09:38:15;;;;;;;24.98;16.10;;;;;;;7.32;68.62;101303.78;5011590;28;20058;-66
2020/12/23 09:40:56;;;;;;;24.85;16.40;;;;;;;7.44;69.03;101294.28;5011371;28;20413;-69
2020/12/23 09:43:23;;;;;;;30.30;18.33;;;;;;;7.52;70.23;101293.06;5011828;28;20433;-69
2020/12/23 09:45:51;;;;;;;28.20;18.73;;;;;;;7.56;69.65;101286.44;5011634;28;20109;-69
2020/12/23 09:48:18;;;;;;;28.20;18.25;;;;;;;7.50;71.01;101299.81;5011172;28;20040;-70
2020/12/23 09:50:44;;;;;;;31.80;19.52;;;;;;;7.33;71.71;101300.41;4990943;28;20026;-69
2020/12/23 09:53:11;;;;;;;31.55;19.08;;;;;;;7.49;71.56;101297.13;4992312;28;20027;-70
2020/12/23 09:55:40;;;;;;;31.80;19.65;;;;;;;7.41;71.54;101260.69;4995396;28;20041;-69
2020/12/23 09:58:05;;;;;;;36.42;22.13;;;;;;;7.63;71.40;101291.19;4995737;28;20026;-72
2020/12/23 10:00:31;;;;;;;33.22;21.52;;;;;;;7.55;71.33;101262.44;4995686;28;20053;-69
2020/12/23 10:02:56;;;;;;;33.67;21.15;;;;;;;7.67;71.51;101272.56;4995647;28;20031;-68
2020/12/23 10:05:22;;;;;;;33.95;20.75;;;;;;;7.69;70.48;101271.00;4995429;28;20069;-68
2020/12/23 10:07:47;;;;;;;27.95;17.55;;;;;;;7.66;70.22;101268.22;4994994;28;20022;-66
2020/12/23 10:10:13;;;;;;;30.00;19.55;;;;;;;7.60;71.13;101265.28;4995477;28;20496;-72
2020/12/23 10:12:39;;;;;;;35.38;19.63;;;;;;;7.56;70.73;101263.31;4995237;28;20033;-68
2020/12/23 10:15:06;;;;;;;33.50;20.20;;;;;;;7.59;70.25;101253.25;5003745;28;20030;-69
2020/12/23 10:17:31;;;;;;;29.00;18.13;;;;;;;7.69;68.97;101253.00;5013593;28;20033;-73
2020/12/23 10:19:57;;;;;;;29.80;19.35;;;;;;;7.80;68.78;101253.66;4979482;28;20030;-68
2020/12/23 10:22:23;;;;;;;25.65;17.48;;;;;;;7.76;68.83;101251.69;5013235;28;20551;-69
2020/12/23 10:24:48;;;;;;;30.65;16.05;;;;;;;7.72;69.37;101242.03;5014610;28;20470;-71
2020/12/23 10:27:13;;;;;;;28.75;18.90;;;;;;;7.75;69.53;101240.53;5014326;28;20026;-69
2020/12/23 10:29:39;;;;;;;28.83;17.65;;;;;;;7.84;69.78;101242.78;5013316;28;20030;-66
2020/12/23 10:32:04;;;;;;;31.70;19.75;;;;;;;7.90;70.09;101240.56;5014188;28;20072;-67
2020/12/23 10:34:30;;;;;;;33.00;19.38;;;;;;;7.91;69.55;101238.88;5013823;28;20478;-69
2020/12/23 10:36:55;;;;;;;33.45;19.58;;;;;;;7.87;70.69;101236.91;5013464;28;20042;-67
2020/12/23 10:39:21;;;;;;;30.92;19.08;;;;;;;7.61;71.05;101200.25;5013028;28;20434;-67
2020/12/23 10:41:52;;;;;;;34.95;20.17;;;;;;;7.68;70.97;101204.97;5011321;28;20038;-73
2020/12/23 10:44:23;;;;;;;31.40;19.88;;;;;;;8.05;71.86;101213.97;4994307;28;20049;-69
2020/12/23 10:46:53;;;;;;;31.10;19.40;;;;;;;8.18;69.78;101213.91;5007485;28;20034;-69
2020/12/23 10:49:20;;;;;;;28.60;19.08;;;;;;;8.00;69.90;101181.97;4972346;28;20042;-69
2020/12/23 10:51:51;;;;;;;32.70;19.50;;;;;;;8.22;70.14;101214.97;4988734;28;20038;-69
2020/12/23 10:54:18;;;;;;;31.95;19.45;;;;;;;8.16;69.11;101210.38;5012895;28;20032;-69
2020/12/23 10:56:43;;;;;;;28.23;18.55;;;;;;;8.13;69.13;101214.44;5013161;28;20445;-69
2020/12/23 10:59:10;;;;;;;31.42;18.50;;;;;;;8.17;68.91;101217.28;5013204;28;20026;-66
2020/12/23 11:01:35;;;;;;;31.15;18.60;;;;;;;8.17;68.98;101208.69;5013643;28;20025;-69
2020/12/23 11:04:00;;;;;;;31.77;18.77;;;;;;;8.13;69.46;101212.75;5013088;28;20018;-68
2020/12/23 11:06:26;;;;;;;27.13;17.65;;;;;;;8.05;69.53;101211.41;5012096;28;20038;-70
2020/12/23 11:08:51;;;;;;;33.10;19.73;;;;;;;8.09;70.42;101216.81;5013485;28;20038;-66
2020/12/23 11:11:19;;;;;;;37.20;21.80;;;;;;;8.18;69.87;101216.47;4996193;28;20030;-66
2020/12/23 11:13:44;;;;;;;30.83;18.38;;;;;;;8.19;70.00;101205.41;5013633;28;20026;-70
2020/12/23 11:16:14;;;;;;;32.92;19.40;;;;;;;8.16;69.70;101197.53;5013807;28;20053;-71
2020/12/23 11:18:40;;;;;;;33.00;19.25;;;;;;;8.21;70.38;101201.25;5013253;28;20481;-69